Time;durP1;ratioP1;P1;durP2;ratioP2;P2;SDS_P1;SDS_P2;PMS_P1;PMS_P2;Temp;Humidity;BMP_temperature;BMP_pressure;BME280_temperature;BME280_humidity;BME280_pressure;Samples;Min_cycle;Max_cycle;Signal;HPM_P1;HPM_P2
2023/07/14 00:01:45;;;;;;;1.40;1.30;;;26.80;45.20;;;;;;5007128;28;20471;-74
2023/07/14 00:04:21;;;;;;;1.17;0.83;;;26.80;45.20;;;;;;5007045;28;20780;-74
2023/07/14 00:06:49;;;;;;;1.13;1.03;;;26.80;45.30;;;;;;5007862;28;20451;-74
2023/07/14 00:09:25;;;;;;;1.20;1.00;;;26.80;45.30;;;;;;5005534;28;20903;-73
2023/07/14 00:11:54;;;;;;;1.50;1.40;;;26.80;45.30;;;;;;4999211;28;20454;-74
2023/07/14 00:14:22;;;;;;;1.13;1.00;;;26.70;45.30;;;;;;4990295;28;20471;-73
2023/07/14 00:16:51;;;;;;;0.93;0.77;;;26.70;45.30;;;;;;5002443;28;20438;-74
2023/07/14 00:19:21;;;;;;;1.30;1.17;;;26.70;45.20;;;;;;5001865;28;20486;-74
2023/07/14 00:21:49;;;;;;;1.37;1.27;;;26.70;45.20;;;;;;5007755;28;20469;-74
2023/07/14 00:24:21;;;;;;;1.27;1.00;;;26.70;45.40;;;;;;5000060;28;20499;-73
2023/07/14 00:26:55;;;;;;;1.10;1.00;;;26.70;45.30;;;;;;5007121;28;21030;-74
2023/07/14 00:29:37;;;;;;;1.17;1.00;;;26.70;45.30;;;;;;4998936;28;20976;-73
2023/07/14 00:32:13;;;;;;;2.10;1.23;;;26.70;45.40;;;;;;5006333;28;20454;-73
2023/07/14 00:34:43;;;;;;;1.70;1.20;;;26.70;45.30;;;;;;4996157;28;21352;-74
2023/07/14 00:37:12;;;;;;;1.73;1.57;;;26.70;45.30;;;;;;5010218;28;20447;-73
2023/07/14 00:39:41;;;;;;;1.33;1.20;;;26.70;45.30;;;;;;5005507;28;20469;-73
2023/07/14 00:42:13;;;;;;;1.60;1.17;;;26.70;45.40;;;;;;5001171;28;20456;-73
2023/07/14 00:44:43;;;;;;;1.63;1.20;;;26.70;45.30;;;;;;5006806;28;20958;-73
2023/07/14 00:47:19;;;;;;;1.87;1.30;;;26.70;45.40;;;;;;5003582;28;20450;-74
2023/07/14 00:49:52;;;;;;;1.33;1.03;;;26.70;45.40;;;;;;5001516;28;20857;-73
2023/07/14 00:52:28;;;;;;;1.23;1.13;;;26.70;45.40;;;;;;4988728;28;21085;-73
2023/07/14 00:54:58;;;;;;;1.63;1.20;;;26.70;45.40;;;;;;5003067;28;20522;-73
2023/07/14 00:57:29;;;;;;;1.30;0.80;;;26.70;45.30;;;;;;4996363;28;20864;-73
2023/07/14 01:00:05;;;;;;;1.87;1.50;;;26.60;45.30;;;;;;4995813;28;20485;-74
2023/07/14 01:02:34;;;;;;;1.93;1.30;;;26.70;45.40;;;;;;5003018;28;20502;-73
2023/07/14 01:05:07;;;;;;;1.47;1.37;;;26.60;45.30;;;;;;5010552;28;20434;-73
2023/07/14 01:07:39;;;;;;;1.60;1.07;;;26.60;45.40;;;;;;4999263;28;20448;-73
2023/07/14 01:10:13;;;;;;;1.50;1.30;;;26.70;45.40;;;;;;5020301;28;20437;-73
2023/07/14 01:12:45;;;;;;;2.27;1.30;;;26.60;45.30;;;;;;5006901;28;20460;-73
2023/07/14 01:15:15;;;;;;;1.37;0.90;;;26.60;45.30;;;;;;5009407;28;20803;-73
2023/07/14 01:17:45;;;;;;;1.27;1.17;;;26.60;45.20;;;;;;4996186;28;20456;-73
2023/07/14 01:20:15;;;;;;;1.57;1.30;;;26.70;45.40;;;;;;4998554;28;20471;-73
2023/07/14 01:22:55;;;;;;;1.63;1.20;;;26.60;45.40;;;;;;5004372;28;20540;-74
2023/07/14 01:25:34;;;;;;;1.53;1.43;;;26.60;45.30;;;;;;5004680;28;20439;-73
2023/07/14 01:28:05;;;;;;;1.50;1.20;;;26.60;45.40;;;;;;5005803;28;20462;-73
2023/07/14 01:30:33;;;;;;;1.50;1.00;;;26.60;45.40;;;;;;4998481;28;20431;-74
2023/07/14 01:33:02;;;;;;;1.77;1.20;;;26.60;45.30;;;;;;5003320;28;20474;-74
2023/07/14 01:35:34;;;;;;;3.27;1.10;;;26.60;45.30;;;;;;5005459;28;20456;-73
2023/07/14 01:38:03;;;;;;;1.27;1.17;;;26.60;45.40;;;;;;5002670;28;20459;-74
2023/07/14 01:40:34;;;;;;;1.33;1.03;;;26.60;45.40;;;;;;5022558;28;21001;-73
2023/07/14 01:43:06;;;;;;;1.20;1.10;;;26.60;45.40;;;;;;5005379;28;20491;-74
2023/07/14 01:45:42;;;;;;;1.57;1.00;;;26.60;45.30;;;;;;5006015;28;20438;-73
2023/07/14 01:48:14;;;;;;;1.60;1.50;;;26.60;45.40;;;;;;5002341;28;20446;-73
2023/07/14 01:50:48;;;;;;;1.30;1.20;;;26.50;45.30;;;;;;5002760;28;20442;-73
2023/07/14 01:53:26;;;;;;;1.70;1.60;;;26.60;45.40;;;;;;5002688;28;20500;-73
2023/07/14 01:55:57;;;;;;;1.53;1.20;;;26.60;45.40;;;;;;5006437;28;20928;-74
2023/07/14 01:58:32;;;;;;;1.50;1.40;;;26.60;45.50;;;;;;5011293;28;20518;-74
2023/07/14 02:01:03;;;;;;;1.30;1.20;;;26.60;45.40;;;;;;5006160;28;20844;-73
2023/07/14 02:03:36;;;;;;;1.30;1.20;;;26.50;45.40;;;;;;5007278;28;20834;-73
2023/07/14 02:06:05;;;;;;;1.37;1.13;;;26.50;45.40;;;;;;5006819;28;20792;-74
2023/07/14 02:08:34;;;;;;;1.90;1.40;;;26.50;45.40;;;;;;5003126;28;20478;-73
2023/07/14 02:11:03;;;;;;;1.60;1.50;;;26.50;45.40;;;;;;5006986;28;20872;-74
2023/07/14 02:13:34;;;;;;;1.17;1.07;;;26.50;45.40;;;;;;5007496;28;20466;-73
2023/07/14 02:16:02;;;;;;;1.13;1.00;;;26.50;45.40;;;;;;5006391;28;20443;-73
2023/07/14 02:18:31;;;;;;;1.20;1.10;;;26.50;45.40;;;;;;5000821;28;20988;-73
2023/07/14 02:21:01;;;;;;;1.30;1.13;;;26.50;45.40;;;;;;5008071;28;20453;-74
2023/07/14 02:23:30;;;;;;;1.40;1.20;;;26.50;45.50;;;;;;5002836;28;20498;-74
2023/07/14 02:26:06;;;;;;;1.63;1.30;;;26.50;45.60;;;;;;5007462;28;20443;-73
2023/07/14 02:28:36;;;;;;;1.17;1.07;;;26.50;45.40;;;;;;5012390;28;20476;-73
2023/07/14 02:31:14;;;;;;;1.47;0.77;;;26.50;45.50;;;;;;5007789;28;20445;-73
2023/07/14 02:33:44;;;;;;;1.87;1.33;;;26.50;45.60;;;;;;5013545;28;20473;-73
2023/07/14 02:36:21;;;;;;;1.17;1.07;;;26.40;45.50;;;;;;5007185;28;20924;-73
2023/07/14 02:38:49;;;;;;;1.43;1.30;;;26.40;45.50;;;;;;4997860;28;20520;-74
2023/07/14 02:41:23;;;;;;;1.83;1.40;;;26.40;45.50;;;;;;5009661;28;20838;-73
2023/07/14 02:43:57;;;;;;;1.43;1.30;;;26.40;45.50;;;;;;5010885;28;21014;-73
2023/07/14 02:46:32;;;;;;;1.57;1.30;;;26.40;45.40;;;;;;5010771;28;20508;-73
2023/07/14 02:49:00;;;;;;;1.60;1.50;;;26.40;45.60;;;;;;5011143;28;20483;-73
2023/07/14 02:51:29;;;;;;;1.37;1.20;;;26.40;45.50;;;;;;5011973;28;20538;-73
2023/07/14 02:53:57;;;;;;;3.23;1.00;;;26.40;45.60;;;;;;5003643;28;20476;-73
2023/07/14 02:56:26;;;;;;;1.73;1.20;;;26.40;45.60;;;;;;5011439;28;20448;-73
2023/07/14 02:58:55;;;;;;;1.90;1.10;;;26.40;45.50;;;;;;5011018;28;20466;-74
2023/07/14 03:01:25;;;;;;;1.73;1.30;;;26.40;45.60;;;;;;5009142;28;20449;-73
2023/07/14 03:03:54;;;;;;;1.50;1.40;;;26.40;45.60;;;;;;5009063;28;20530;-73
2023/07/14 03:06:23;;;;;;;1.43;1.33;;;26.40;45.70;;;;;;5002257;28;20434;-73
2023/07/14 03:08:52;;;;;;;1.10;1.00;;;26.40;45.60;;;;;;5007744;28;20507;-73
2023/07/14 03:11:20;;;;;;;2.70;1.10;;;26.40;45.70;;;;;;5008782;28;20435;-73
2023/07/14 03:13:49;;;;;;;3.43;1.27;;;26.40;45.60;;;;;;5013197;28;20467;-73
2023/07/14 03:16:19;;;;;;;1.30;1.00;;;26.40;45.60;;;;;;5002063;28;20449;-74
2023/07/14 03:18:48;;;;;;;1.63;1.33;;;26.30;45.60;;;;;;5007201;28;20567;-73
2023/07/14 03:21:17;;;;;;;1.97;1.27;;;26.30;45.50;;;;;;5009267;28;20437;-74
2023/07/14 03:23:45;;;;;;;1.50;1.40;;;26.30;45.60;;;;;;5005039;28;20516;-74
2023/07/14 03:26:14;;;;;;;1.73;1.33;;;26.30;45.60;;;;;;5007791;28;20447;-74
2023/07/14 03:28:42;;;;;;;1.20;1.10;;;26.30;45.60;;;;;;5003624;28;20500;-73
2023/07/14 03:31:11;;;;;;;1.33;1.00;;;26.30;45.60;;;;;;5008127;28;20436;-73
2023/07/14 03:33:43;;;;;;;2.27;1.50;;;26.30;45.60;;;;;;5009054;28;20510;-74
2023/07/14 03:36:14;;;;;;;1.70;1.23;;;26.30;45.70;;;;;;5009932;28;20446;-73
2023/07/14 03:38:44;;;;;;;1.60;1.40;;;26.30;45.80;;;;;;4999193;28;21014;-74
2023/07/14 03:41:15;;;;;;;1.67;1.37;;;26.30;45.70;;;;;;5007006;28;20470;-74
2023/07/14 03:43:44;;;;;;;1.30;1.20;;;26.30;45.70;;;;;;5019657;28;20469;-73
2023/07/14 03:46:13;;;;;;;1.40;1.30;;;26.30;45.60;;;;;;4996121;28;20548;-73
2023/07/14 03:48:44;;;;;;;1.93;1.73;;;26.30;45.80;;;;;;5006130;28;20886;-73
2023/07/14 03:51:12;;;;;;;1.57;1.40;;;26.30;45.70;;;;;;5004834;28;20858;-73
2023/07/14 03:53:41;;;;;;;1.43;1.20;;;26.20;45.60;;;;;;5003150;28;20476;-73
2023/07/14 03:56:10;;;;;;;2.27;1.20;;;26.30;45.70;;;;;;5001751;28;20447;-73
2023/07/14 03:58:42;;;;;;;1.73;1.30;;;26.20;45.70;;;;;;5016795;28;20558;-74
2023/07/14 04:01:10;;;;;;;1.60;1.50;;;26.30;45.80;;;;;;5017735;28;20824;-74
2023/07/14 04:03:39;;;;;;;2.23;1.40;;;26.20;45.70;;;;;;5015189;28;20472;-73
2023/07/14 04:06:09;;;;;;;1.40;1.30;;;26.20;45.70;;;;;;4993570;28;20571;-73
2023/07/14 04:08:43;;;;;;;1.60;1.30;;;26.20;45.80;;;;;;5000090;28;20483;-73
2023/07/14 04:11:13;;;;;;;1.73;1.47;;;26.20;45.70;;;;;;5007625;28;20440;-73
2023/07/14 04:13:42;;;;;;;2.90;1.23;;;26.20;45.60;;;;;;5006096;28;20569;-73
2023/07/14 04:16:10;;;;;;;1.90;1.63;;;26.20;45.80;;;;;;4992865;28;20464;-73
2023/07/14 04:18:39;;;;;;;1.50;1.20;;;26.20;45.80;;;;;;5001015;28;20518;-74
2023/07/14 04:21:11;;;;;;;1.67;1.23;;;26.20;45.80;;;;;;5007578;28;20436;-73
2023/07/14 04:23:40;;;;;;;1.50;1.37;;;26.20;45.80;;;;;;4992778;28;20499;-74
2023/07/14 04:26:11;;;;;;;1.57;1.40;;;26.10;45.70;;;;;;5003295;28;20432;-74
2023/07/14 04:28:40;;;;;;;1.33;1.23;;;26.20;45.80;;;;;;5003458;28;20471;-73
2023/07/14 04:31:08;;;;;;;1.30;1.20;;;26.20;45.80;;;;;;4996969;28;20451;-73
2023/07/14 04:33:37;;;;;;;1.43;1.33;;;26.20;45.90;;;;;;4999088;28;20992;-74
2023/07/14 04:36:06;;;;;;;1.40;1.00;;;26.10;45.90;;;;;;5007444;28;20463;-74
2023/07/14 04:38:36;;;;;;;1.50;1.40;;;26.10;45.90;;;;;;5003091;28;20531;-74
2023/07/14 04:41:04;;;;;;;1.53;1.30;;;26.10;45.80;;;;;;5000489;28;20543;-73
2023/07/14 04:43:34;;;;;;;1.50;1.27;;;26.10;45.70;;;;;;5006573;28;20484;-73
2023/07/14 04:46:02;;;;;;;1.30;1.20;;;26.10;45.80;;;;;;5003502;28;20469;-73
2023/07/14 04:48:31;;;;;;;1.37;1.27;;;26.10;45.80;;;;;;5006377;28;20471;-73
2023/07/14 04:50:59;;;;;;;1.30;1.03;;;26.10;45.80;;;;;;5001437;28;20468;-73
2023/07/14 04:53:28;;;;;;;1.90;1.63;;;26.10;45.90;;;;;;4999961;28;20491;-73
2023/07/14 04:55:58;;;;;;;1.43;1.17;;;26.10;45.80;;;;;;5007105;28;20448;-74
2023/07/14 04:58:26;;;;;;;1.40;1.17;;;26.10;45.90;;;;;;5006773;28;21041;-73
2023/07/14 05:00:55;;;;;;;2.00;1.13;;;26.10;45.90;;;;;;5008160;28;20431;-73
2023/07/14 05:03:25;;;;;;;1.77;1.40;;;26.10;45.90;;;;;;5014223;28;20498;-73
2023/07/14 05:05:54;;;;;;;1.20;1.10;;;26.00;45.90;;;;;;5007968;28;20482;-73
2023/07/14 05:08:23;;;;;;;1.40;1.30;;;26.00;45.90;;;;;;5001643;28;20480;-73
2023/07/14 05:10:51;;;;;;;1.50;1.30;;;26.10;45.90;;;;;;5015101;28;20867;-73
2023/07/14 05:13:21;;;;;;;1.53;1.30;;;26.00;45.90;;;;;;5002057;28;20487;-73
2023/07/14 05:15:49;;;;;;;1.40;1.20;;;26.00;46.00;;;;;;5006504;28;20454;-73
2023/07/14 05:18:18;;;;;;;1.40;1.30;;;26.00;45.90;;;;;;5003505;28;20889;-73
2023/07/14 05:20:47;;;;;;;1.27;1.17;;;26.00;46.00;;;;;;5006605;28;20940;-74
2023/07/14 05:23:16;;;;;;;2.60;1.30;;;26.00;45.90;;;;;;5006006;28;20470;-73
2023/07/14 05:25:47;;;;;;;2.03;1.70;;;26.00;45.90;;;;;;4986543;28;21138;-73
2023/07/14 05:28:16;;;;;;;1.77;1.17;;;26.00;46.00;;;;;;4995280;28;20461;-73
2023/07/14 05:30:45;;;;;;;1.30;1.13;;;26.00;46.00;;;;;;5005957;28;20970;-73
2023/07/14 05:33:16;;;;;;;1.10;1.00;;;26.00;46.00;;;;;;5000500;28;20519;-73
2023/07/14 05:35:45;;;;;;;1.60;1.30;;;26.00;46.00;;;;;;5004993;28;20490;-73
2023/07/14 05:38:14;;;;;;;1.70;1.57;;;26.00;46.00;;;;;;5000366;28;20483;-73
2023/07/14 05:40:51;;;;;;;1.20;1.10;;;26.00;47.30;;;;;;5003984;28;20519;-73
2023/07/14 05:43:27;;;;;;;2.17;1.60;;;26.00;46.00;;;;;;4997588;28;20504;-73
2023/07/14 05:45:58;;;;;;;1.57;1.23;;;26.00;46.10;;;;;;5000181;28;20472;-73
2023/07/14 05:48:26;;;;;;;0.97;0.90;;;26.00;46.10;;;;;;5017372;28;20475;-73
2023/07/14 05:50:55;;;;;;;1.30;1.20;;;26.00;46.10;;;;;;4998058;28;20431;-73
2023/07/14 05:53:24;;;;;;;1.57;1.47;;;26.00;46.00;;;;;;5003970;28;20491;-73
2023/07/14 05:55:52;;;;;;;1.43;1.33;;;26.00;46.00;;;;;;5000245;28;20960;-73
2023/07/14 05:58:21;;;;;;;1.80;1.47;;;26.00;46.10;;;;;;4995257;28;20479;-73
2023/07/14 06:00:49;;;;;;;1.93;1.40;;;26.00;46.00;;;;;;4997603;28;20874;-73
2023/07/14 06:03:19;;;;;;;1.77;1.67;;;26.00;46.10;;;;;;4994879;28;20555;-73
2023/07/14 06:05:49;;;;;;;1.93;1.20;;;26.00;46.10;;;;;;4998085;28;20480;-74
2023/07/14 06:08:19;;;;;;;1.63;1.10;;;26.00;46.20;;;;;;4996198;28;21059;-73
2023/07/14 06:10:51;;;;;;;1.60;1.20;;;26.00;46.20;;;;;;5017249;28;20457;-74
2023/07/14 06:13:20;;;;;;;1.87;1.67;;;26.00;46.30;;;;;;4996915;28;20915;-73
2023/07/14 06:15:50;;;;;;;2.27;1.20;;;26.00;46.10;;;;;;4998807;28;20452;-73
2023/07/14 06:18:20;;;;;;;3.03;0.90;;;26.00;46.10;;;;;;5001232;28;20484;-74
2023/07/14 06:20:48;;;;;;;1.60;1.20;;;26.00;46.20;;;;;;5001095;28;20452;-73
2023/07/14 06:23:17;;;;;;;1.80;1.60;;;26.00;46.30;;;;;;4998991;28;20566;-73
2023/07/14 06:25:45;;;;;;;1.63;1.20;;;25.90;46.00;;;;;;5001659;28;20464;-73
2023/07/14 06:28:14;;;;;;;1.47;1.37;;;25.90;46.10;;;;;;4992417;28;20527;-74
2023/07/14 06:30:42;;;;;;;1.40;1.30;;;25.90;46.20;;;;;;5005202;28;20944;-73
2023/07/14 06:33:12;;;;;;;2.10;1.17;;;25.90;46.20;;;;;;5001231;28;20537;-73
2023/07/14 06:35:42;;;;;;;1.50;1.40;;;25.90;46.00;;;;;;5001817;28;20444;-74
2023/07/14 06:38:11;;;;;;;1.83;1.27;;;25.90;46.20;;;;;;5009053;28;20479;-73
2023/07/14 06:40:39;;;;;;;1.30;1.20;;;25.90;46.00;;;;;;5001438;28;20447;-73
2023/07/14 06:43:09;;;;;;;1.23;1.13;;;25.90;46.10;;;;;;5010624;28;20575;-74
2023/07/14 06:45:37;;;;;;;2.70;1.27;;;25.90;46.20;;;;;;5005113;28;20513;-73
2023/07/14 06:48:06;;;;;;;2.13;1.20;;;25.90;46.20;;;;;;5003761;28;20517;-73
2023/07/14 06:50:37;;;;;;;1.80;1.40;;;25.90;46.10;;;;;;5005668;28;20864;-73
2023/07/14 06:53:08;;;;;;;3.03;2.50;;;25.90;46.00;;;;;;5004883;28;20497;-75
2023/07/14 06:55:38;;;;;;;3.53;2.43;;;25.90;45.70;;;;;;5005135;28;20477;-74
2023/07/14 06:58:06;;;;;;;3.27;2.53;;;25.90;42.80;;;;;;5001801;28;20479;-73
2023/07/14 07:00:35;;;;;;;5.17;2.93;;;25.70;42.90;;;;;;5006001;28;20452;-73
2023/07/14 07:03:05;;;;;;;2.47;2.07;;;25.50;43.70;;;;;;4998713;28;20510;-73
2023/07/14 07:05:38;;;;;;;3.40;2.50;;;25.50;44.40;;;;;;4998435;28;20466;-73
2023/07/14 07:08:11;;;;;;;2.17;1.70;;;25.60;44.70;;;;;;5001755;28;20456;-73
2023/07/14 07:10:42;;;;;;;3.67;2.40;;;25.60;44.90;;;;;;5008444;28;20529;-74
2023/07/14 07:13:11;;;;;;;2.50;1.93;;;25.60;44.70;;;;;;5009290;28;20488;-74
2023/07/14 07:15:40;;;;;;;2.70;2.50;;;25.70;44.70;;;;;;5007715;28;20456;-73
2023/07/14 07:18:08;;;;;;;2.13;1.93;;;25.70;44.80;;;;;;5020135;28;20467;-73
2023/07/14 07:20:38;;;;;;;2.33;2.13;;;25.70;44.80;;;;;;5014456;28;20668;-73
2023/07/14 07:23:07;;;;;;;2.20;2.00;;;25.70;44.90;;;;;;5005520;28;20485;-73
2023/07/14 07:25:38;;;;;;;2.27;2.07;;;25.70;44.90;;;;;;5017580;28;20470;-73
2023/07/14 07:28:06;;;;;;;2.37;2.17;;;25.70;44.80;;;;;;5015189;28;20513;-73
2023/07/14 07:30:36;;;;;;;2.93;2.63;;;25.70;44.80;;;;;;5007465;28;20439;-73
2023/07/14 07:33:04;;;;;;;3.70;2.33;;;25.70;44.80;;;;;;4998823;28;20465;-73
2023/07/14 07:35:33;;;;;;;1.80;1.70;;;25.70;44.50;;;;;;5008023;28;20467;-73
2023/07/14 07:38:02;;;;;;;3.40;1.97;;;25.70;44.70;;;;;;5001987;28;20458;-73
2023/07/14 07:40:31;;;;;;;3.37;2.20;;;25.70;44.80;;;;;;5007369;28;20435;-73
2023/07/14 07:43:01;;;;;;;2.27;1.93;;;25.70;44.60;;;;;;5007320;28;20508;-73
2023/07/14 07:45:30;;;;;;;3.07;1.83;;;25.70;44.80;;;;;;5010955;28;20478;-73
2023/07/14 07:47:59;;;;;;;5.20;2.13;;;25.70;44.80;;;;;;5007224;28;20458;-73
2023/07/14 07:50:28;;;;;;;3.20;1.97;;;25.80;44.90;;;;;;5016040;28;20450;-73
2023/07/14 07:52:56;;;;;;;2.50;2.30;;;25.80;45.00;;;;;;5006523;28;20456;-73
2023/07/14 07:55:24;;;;;;;2.43;2.23;;;25.70;44.90;;;;;;5008471;28;20451;-73
2023/07/14 07:57:55;;;;;;;4.47;3.17;;;25.70;44.90;;;;;;5017073;28;20910;-73
2023/07/14 08:00:25;;;;;;;3.33;2.27;;;25.80;45.00;;;;;;5009778;28;20954;-73
2023/07/14 08:02:53;;;;;;;2.50;2.20;;;25.70;44.90;;;;;;5004899;28;21001;-73
2023/07/14 08:05:24;;;;;;;3.40;2.10;;;25.70;44.90;;;;;;5008797;28;20536;-73
2023/07/14 08:07:52;;;;;;;3.47;2.50;;;25.70;45.10;;;;;;5007195;28;20469;-73
2023/07/14 08:10:21;;;;;;;2.33;2.03;;;25.70;44.80;;;;;;5038133;28;20525;-73
2023/07/14 08:12:49;;;;;;;2.23;2.07;;;25.70;45.00;;;;;;5008288;28;20624;-73
2023/07/14 08:15:17;;;;;;;2.37;2.17;;;25.70;45.10;;;;;;5006741;28;20457;-73
2023/07/14 08:17:57;;;;;;;2.20;2.00;;;25.70;45.10;;;;;;5007462;28;20996;-73
2023/07/14 08:20:25;;;;;;;2.60;1.87;;;25.70;45.10;;;;;;5004767;28;20467;-73
2023/07/14 08:22:54;;;;;;;2.27;1.90;;;25.70;45.30;;;;;;5001871;28;20499;-73
2023/07/14 08:25:23;;;;;;;2.00;1.80;;;25.70;45.30;;;;;;5006443;28;20438;-73
2023/07/14 08:27:52;;;;;;;2.40;1.80;;;25.70;45.10;;;;;;4996015;28;20999;-73
2023/07/14 08:30:21;;;;;;;2.20;1.80;;;25.70;45.20;;;;;;5006050;28;20494;-73
2023/07/14 08:32:49;;;;;;;2.70;1.73;;;25.70;45.40;;;;;;5001455;28;20478;-73
2023/07/14 08:35:21;;;;;;;3.60;2.00;;;25.70;45.00;;;;;;5011405;28;20432;-73
2023/07/14 08:37:49;;;;;;;2.07;1.77;;;25.70;44.70;;;;;;5003271;28;20441;-73
2023/07/14 08:40:21;;;;;;;4.20;2.30;;;25.70;45.20;;;;;;4999669;28;20444;-73
2023/07/14 08:43:05;;;;;;;2.03;1.83;;;25.70;44.80;;;;;;5018503;28;21015;-73
2023/07/14 08:45:39;;;;;;;1.97;1.77;;;25.70;44.50;;;;;;5004135;28;20957;-73
2023/07/14 08:48:23;;;;;;;1.60;1.50;;;25.70;44.70;;;;;;5004168;28;20510;-73
2023/07/14 08:50:57;;;;;;;2.70;2.27;;;25.70;44.50;;;;;;5015045;28;20455;-73
2023/07/14 08:53:29;;;;;;;1.80;1.63;;;25.70;44.60;;;;;;5004140;28;20478;-73
2023/07/14 08:56:02;;;;;;;3.40;2.13;;;25.70;44.40;;;;;;5006556;28;20444;-73
2023/07/14 08:58:35;;;;;;;2.30;2.00;;;25.70;44.50;;;;;;5006224;28;20560;-73
2023/07/14 09:01:19;;;;;;;2.80;2.37;;;25.70;44.30;;;;;;5006824;28;21270;-73
2023/07/14 09:03:54;;;;;;;2.30;2.00;;;25.70;43.80;;;;;;5004480;28;20481;-73
2023/07/14 09:06:30;;;;;;;1.97;1.73;;;25.60;43.80;;;;;;5007810;28;20957;-73
2023/07/14 09:08:59;;;;;;;2.27;1.83;;;25.60;43.80;;;;;;5007382;28;21033;-73
2023/07/14 09:11:41;;;;;;;2.10;1.90;;;25.70;43.70;;;;;;5006747;28;20862;-73
2023/07/14 09:14:24;;;;;;;3.50;1.90;;;25.70;43.30;;;;;;5005705;28;20473;-73
2023/07/14 09:17:04;;;;;;;2.40;1.57;;;25.60;43.40;;;;;;5003407;28;20916;-73
2023/07/14 09:19:47;;;;;;;4.63;2.17;;;25.60;43.50;;;;;;5014750;28;21034;-73
2023/07/14 09:22:26;;;;;;;2.40;2.20;;;25.60;43.70;;;;;;5015142;28;20448;-73
2023/07/14 09:25:03;;;;;;;2.47;1.90;;;25.70;43.60;;;;;;5004767;28;20439;-73
2023/07/14 09:27:33;;;;;;;3.70;2.10;;;25.60;43.30;;;;;;5004439;28;20505;-73
2023/07/14 09:30:04;;;;;;;2.13;1.53;;;25.70;43.80;;;;;;5007065;28;20561;-73
2023/07/14 09:32:37;;;;;;;2.73;2.27;;;25.60;42.80;;;;;;4999638;28;21334;-73
2023/07/14 09:35:18;;;;;;;2.60;2.40;;;25.60;42.50;;;;;;5004244;28;21023;-73
2023/07/14 09:37:51;;;;;;;1.90;1.67;;;25.70;42.70;;;;;;5000072;28;20457;-73
2023/07/14 09:40:23;;;;;;;2.60;2.33;;;25.70;42.50;;;;;;5006427;28;20438;-73
2023/07/14 09:42:53;;;;;;;2.30;2.00;;;25.70;42.90;;;;;;5006244;28;21024;-73
2023/07/14 09:45:25;;;;;;;2.37;2.13;;;25.70;42.70;;;;;;5015565;28;20952;-73
2023/07/14 09:47:57;;;;;;;5.00;2.37;;;25.60;42.40;;;;;;5003755;28;20999;-73
2023/07/14 09:50:27;;;;;;;2.70;1.90;;;25.70;42.10;;;;;;5004697;28;20977;-73
2023/07/14 09:53:01;;;;;;;2.43;2.20;;;25.70;42.30;;;;;;5001947;28;20470;-73
2023/07/14 09:55:42;;;;;;;2.40;2.20;;;25.70;42.40;;;;;;4998027;28;20446;-73
2023/07/14 09:58:15;;;;;;;5.33;1.60;;;25.70;42.40;;;;;;4990882;28;20489;-73
2023/07/14 10:00:49;;;;;;;2.30;1.60;;;25.70;42.20;;;;;;4997350;28;20446;-73
2023/07/14 10:03:19;;;;;;;2.17;2.07;;;25.60;42.50;;;;;;5005138;28;20473;-73
2023/07/14 10:06:16;;;;;;;2.03;1.90;;;25.70;42.50;;;;;;5009560;28;20526;-73
2023/07/14 10:08:50;;;;;;;2.13;1.60;;;25.70;43.20;;;;;;4996687;28;20897;-73
2023/07/14 10:11:25;;;;;;;3.97;1.60;;;25.70;42.60;;;;;;5005892;28;20437;-73
2023/07/14 10:13:59;;;;;;;1.87;1.77;;;25.60;42.70;;;;;;5019881;28;20908;-73
2023/07/14 10:16:32;;;;;;;1.77;1.67;;;25.70;42.90;;;;;;5002958;28;20557;-73
2023/07/14 10:19:05;;;;;;;1.83;1.67;;;25.70;42.90;;;;;;4994935;28;20463;-73
2023/07/14 10:21:35;;;;;;;2.10;1.83;;;25.70;42.70;;;;;;4998052;28;20950;-73
2023/07/14 10:24:07;;;;;;;1.97;1.70;;;25.70;42.60;;;;;;5003740;28;20494;-67
2023/07/14 10:26:40;;;;;;;2.70;2.20;;;25.70;42.90;;;;;;5003578;28;20470;-67
2023/07/14 10:29:16;;;;;;;2.40;1.80;;;25.70;42.70;;;;;;5000695;28;20486;-67
2023/07/14 10:31:48;;;;;;;2.10;1.77;;;25.70;42.40;;;;;;4998209;28;20432;-67
2023/07/14 10:34:47;;;;;;;3.00;2.70;;;25.70;42.50;;;;;;5003140;28;20467;-67
2023/07/14 10:37:24;;;;;;;2.40;1.83;;;25.70;42.40;;;;;;5003717;28;20455;-67
2023/07/14 10:39:59;;;;;;;2.53;1.80;;;25.70;43.20;;;;;;4999059;28;20964;-67
2023/07/14 10:42:32;;;;;;;3.23;2.13;;;25.70;43.30;;;;;;4998727;28;21020;-66
2023/07/14 10:45:01;;;;;;;2.27;1.77;;;25.70;43.40;;;;;;5005061;28;20445;-67
2023/07/14 10:47:38;;;;;;;2.77;2.27;;;25.70;42.80;;;;;;4998264;28;20467;-67
2023/07/14 10:50:18;;;;;;;2.60;2.20;;;25.70;42.70;;;;;;5005710;28;20548;-66
2023/07/14 10:52:52;;;;;;;2.83;2.37;;;25.70;42.30;;;;;;5019132;28;21011;-67
2023/07/14 10:55:26;;;;;;;2.80;1.87;;;25.70;42.40;;;;;;5019922;28;20455;-66
2023/07/14 10:57:59;;;;;;;2.23;2.03;;;25.70;42.80;;;;;;5010716;28;20957;-66
2023/07/14 11:00:34;;;;;;;2.30;1.83;;;25.70;42.50;;;;;;5008158;28;20451;-67
2023/07/14 11:03:22;;;;;;;2.33;2.00;;;25.70;42.40;;;;;;5006682;28;20486;-66
2023/07/14 11:05:56;;;;;;;2.63;2.20;;;25.70;42.00;;;;;;5012959;28;20889;-73
2023/07/14 11:08:26;;;;;;;3.20;2.20;;;25.70;41.80;;;;;;5002041;28;20477;-73
2023/07/14 11:11:02;;;;;;;3.50;1.97;;;25.70;42.40;;;;;;5017065;28;20459;-73
2023/07/14 11:13:40;;;;;;;2.80;2.57;;;25.70;42.40;;;;;;5006849;28;20525;-73
2023/07/14 11:16:14;;;;;;;2.63;2.43;;;25.70;42.00;;;;;;5010954;28;20531;-73
2023/07/14 11:18:51;;;;;;;2.13;1.80;;;25.70;42.10;;;;;;5012145;28;20529;-73
2023/07/14 11:21:37;;;;;;;2.30;1.60;;;25.70;41.80;;;;;;5007325;28;20456;-67
2023/07/14 11:24:18;;;;;;;2.50;2.13;;;25.70;41.90;;;;;;5002372;28;20478;-67
2023/07/14 11:27:14;;;;;;;2.87;2.40;;;25.70;42.00;;;;;;5003115;28;20459;-67
2023/07/14 11:29:50;;;;;;;2.50;2.07;;;25.70;42.60;;;;;;5005267;28;20517;-67
2023/07/14 11:32:24;;;;;;;2.87;2.10;;;25.70;42.60;;;;;;5009166;28;20536;-67
2023/07/14 11:35:01;;;;;;;2.50;2.30;;;25.80;42.60;;;;;;5016395;28;20545;-67
2023/07/14 11:37:41;;;;;;;2.70;2.47;;;25.70;42.10;;;;;;5000021;28;20475;-68
2023/07/14 11:40:20;;;;;;;3.23;2.00;;;25.70;42.30;;;;;;5013735;28;20481;-67
2023/07/14 11:42:57;;;;;;;2.57;2.20;;;25.70;42.60;;;;;;5000832;28;21090;-67
2023/07/14 11:45:29;;;;;;;2.90;2.70;;;25.80;40.60;;;;;;5009274;28;20439;-67
2023/07/14 11:48:00;;;;;;;3.00;2.70;;;25.70;40.00;;;;;;5013182;28;20472;-67
2023/07/14 11:50:31;;;;;;;4.73;2.87;;;25.70;39.90;;;;;;5013201;28;20922;-67
2023/07/14 11:53:10;;;;;;;3.13;2.40;;;25.80;40.90;;;;;;5007490;28;20541;-68
2023/07/14 11:55:41;;;;;;;3.43;2.60;;;25.80;41.50;;;;;;5017225;28;20436;-68
2023/07/14 11:58:24;;;;;;;2.40;1.77;;;25.80;41.90;;;;;;5000605;28;20475;-67
2023/07/14 12:00:57;;;;;;;2.63;2.43;;;25.80;42.30;;;;;;5002415;28;20436;-67
2023/07/14 12:03:29;;;;;;;3.07;2.37;;;25.70;42.30;;;;;;5010781;28;20468;-68
2023/07/14 12:06:53;;;;;;;3.10;2.30;;;25.70;41.80;;;;;;5013622;28;20452;-67
2023/07/14 12:09:22;;;;;;;2.10;1.90;;;25.80;42.10;;;;;;4975027;28;20482;-67
2023/07/14 12:11:56;;;;;;;2.80;2.37;;;25.80;42.30;;;;;;5012264;28;20499;-67
2023/07/14 12:14:46;;;;;;;3.13;2.27;;;25.80;42.10;;;;;;5002132;28;20497;-68
2023/07/14 12:17:47;;;;;;;2.17;1.97;;;25.80;42.20;;;;;;5010098;28;20451;-67
2023/07/14 12:20:30;;;;;;;3.40;2.53;;;25.80;41.70;;;;;;5008354;28;20482;-67
2023/07/14 12:23:21;;;;;;;2.97;2.07;;;25.80;43.70;;;;;;4998424;28;20731;-67
2023/07/14 12:25:54;;;;;;;2.80;2.07;;;25.80;42.30;;;;;;5023133;28;20448;-67
2023/07/14 12:28:30;;;;;;;3.20;2.80;;;25.80;41.90;;;;;;5015138;28;20484;-67
2023/07/14 12:31:04;;;;;;;1.87;1.77;;;25.80;42.00;;;;;;5024483;28;20458;-67
2023/07/14 12:33:33;;;;;;;1.90;1.80;;;25.80;41.90;;;;;;4999461;28;20537;-67
2023/07/14 12:36:05;;;;;;;3.10;2.07;;;25.80;42.30;;;;;;5013571;28;20447;-67
2023/07/14 12:38:34;;;;;;;2.57;2.00;;;25.80;41.40;;;;;;5014056;28;20492;-67
2023/07/14 12:41:06;;;;;;;2.67;2.40;;;25.80;42.70;;;;;;5013462;28;20439;-67
2023/07/14 12:43:40;;;;;;;2.50;2.30;;;25.80;41.60;;;;;;5018677;28;20471;-67
2023/07/14 12:46:20;;;;;;;2.20;2.00;;;25.90;41.90;;;;;;5011564;28;20473;-67
2023/07/14 12:48:49;;;;;;;1.93;1.80;;;25.80;41.70;;;;;;5008861;28;20553;-67
2023/07/14 12:51:23;;;;;;;2.80;2.20;;;25.80;41.50;;;;;;5007818;28;20447;-67
2023/07/14 12:53:58;;;;;;;2.30;2.10;;;25.80;41.00;;;;;;4991026;28;20474;-67
2023/07/14 12:56:29;;;;;;;2.47;2.27;;;25.90;41.70;;;;;;5004775;28;20459;-66
2023/07/14 12:59:03;;;;;;;3.90;1.97;;;25.90;42.20;;;;;;5001007;28;20465;-67
2023/07/14 13:01:35;;;;;;;2.60;2.40;;;25.90;41.90;;;;;;5004450;28;20436;-67
2023/07/14 13:04:04;;;;;;;2.20;1.80;;;25.90;41.80;;;;;;5011362;28;20471;-67
2023/07/14 13:06:34;;;;;;;3.13;2.30;;;25.90;42.20;;;;;;5014241;28;20454;-68
2023/07/14 13:09:10;;;;;;;2.30;2.10;;;25.90;42.50;;;;;;5000250;28;20577;-67
2023/07/14 13:11:41;;;;;;;3.07;1.83;;;25.90;42.30;;;;;;5007775;28;20484;-73
2023/07/14 13:14:19;;;;;;;2.70;2.30;;;25.90;42.10;;;;;;5007757;28;20564;-73